Time;durP1;ratioP1;P1;durP2;ratioP2;P2;SDS_P1;SDS_P2;PMS_P1;PMS_P2;Temp;Humidity;BMP_temperature;BMP_pressure;BME280_temperature;BME280_humidity;BME280_pressure;Samples;Min_cycle;Max_cycle;Signal;HPM_P1;HPM_P2
2022/03/10 00:00:55;;;;;;;4.93;3.83;;;-1.20;99.90;;;;;;4994696;28;20254;-73
2022/03/10 00:03:22;;;;;;;4.90;4.05;;;-1.20;99.90;;;;;;4994606;28;20296;-73
2022/03/10 00:05:49;;;;;;;5.15;4.07;;;-1.20;99.90;;;;;;4994898;28;20253;-73
2022/03/10 00:08:16;;;;;;;5.35;4.07;;;-1.20;99.90;;;;;;4994182;28;20266;-73
2022/03/10 00:10:43;;;;;;;7.55;4.65;;;-1.20;99.90;;;;;;4993839;28;20651;-73
2022/03/10 00:13:10;;;;;;;5.47;4.53;;;-1.30;99.90;;;;;;4994668;28;20290;-73
2022/03/10 00:15:37;;;;;;;5.60;4.68;;;-1.30;99.90;;;;;;4994192;28;20569;-74
2022/03/10 00:18:05;;;;;;;5.63;4.25;;;-1.40;99.90;;;;;;4994160;28;20230;-74
2022/03/10 00:20:32;;;;;;;5.30;4.03;;;-1.40;99.90;;;;;;4994384;28;20209;-74
2022/03/10 00:22:59;;;;;;;5.35;4.50;;;-1.40;99.90;;;;;;4994207;28;20230;-74
2022/03/10 00:25:26;;;;;;;5.25;4.57;;;-1.50;99.90;;;;;;4994608;28;20294;-74
2022/03/10 00:27:53;;;;;;;5.63;4.47;;;-1.50;99.90;;;;;;4998527;28;20317;-74
2022/03/10 00:30:20;;;;;;;5.90;4.50;;;-1.50;99.90;;;;;;5001165;28;20289;-74
2022/03/10 00:32:49;;;;;;;7.53;5.10;;;-1.60;99.90;;;;;;4999338;28;20282;-73
2022/03/10 00:35:19;;;;;;;7.68;4.75;;;-1.60;99.90;;;;;;5008610;28;20233;-73
2022/03/10 00:37:47;;;;;;;7.22;5.53;;;-1.60;99.90;;;;;;5003193;28;20219;-74
2022/03/10 00:40:14;;;;;;;5.95;4.78;;;-1.60;99.90;;;;;;4994218;28;20225;-74
2022/03/10 00:42:41;;;;;;;5.47;4.88;;;-1.60;99.90;;;;;;4994291;28;20227;-74
2022/03/10 00:45:10;;;;;;;6.78;5.13;;;-1.60;99.90;;;;;;4994214;28;20230;-74
2022/03/10 00:47:37;;;;;;;6.60;4.53;;;-1.60;99.90;;;;;;4994306;28;20229;-74
2022/03/10 00:50:05;;;;;;;5.07;4.57;;;-1.60;99.90;;;;;;4994001;28;20650;-74
2022/03/10 00:52:33;;;;;;;6.78;4.93;;;-1.60;99.90;;;;;;4994303;28;20290;-76
2022/03/10 00:55:00;;;;;;;8.05;5.18;;;-1.60;99.90;;;;;;4994449;28;20636;-75
2022/03/10 00:57:27;;;;;;;8.80;5.65;;;-1.60;99.90;;;;;;4994352;28;20650;-75
2022/03/10 00:59:53;;;;;;;6.80;5.60;;;-1.60;99.90;;;;;;4994669;28;20206;-75
2022/03/10 01:02:20;;;;;;;9.02;6.22;;;-1.60;99.90;;;;;;4994088;28;20773;-75
2022/03/10 01:04:47;;;;;;;8.75;6.05;;;-1.60;99.90;;;;;;4994114;28;20255;-75
2022/03/10 01:07:14;;;;;;;7.60;5.85;;;-1.70;99.90;;;;;;4994002;28;20273;-75
2022/03/10 01:09:42;;;;;;;8.13;6.13;;;-1.70;99.90;;;;;;4994094;28;20187;-75
2022/03/10 01:12:10;;;;;;;8.48;5.85;;;-1.70;99.90;;;;;;4993984;28;20230;-75
2022/03/10 01:14:37;;;;;;;6.30;5.25;;;-1.70;99.90;;;;;;4993735;28;20260;-75
2022/03/10 01:17:04;;;;;;;7.93;5.68;;;-1.70;99.90;;;;;;4994652;28;20261;-75
2022/03/10 01:19:31;;;;;;;7.07;5.25;;;-1.70;99.90;;;;;;4993943;28;20662;-75
2022/03/10 01:21:58;;;;;;;7.95;5.53;;;-1.70;99.90;;;;;;4995520;28;20253;-74
2022/03/10 01:24:25;;;;;;;6.72;4.70;;;-1.70;99.90;;;;;;4997754;28;20294;-74
2022/03/10 01:26:53;;;;;;;5.90;5.00;;;-1.70;99.90;;;;;;4997818;28;20205;-74
2022/03/10 01:29:20;;;;;;;6.38;5.00;;;-1.80;99.90;;;;;;4998594;28;20601;-74
2022/03/10 01:31:47;;;;;;;5.90;5.03;;;-1.80;99.90;;;;;;4997962;28;20281;-74
2022/03/10 01:34:14;;;;;;;8.10;5.68;;;-1.80;99.90;;;;;;4998148;28;20234;-74
2022/03/10 01:36:41;;;;;;;7.90;5.75;;;-1.80;99.90;;;;;;4997727;28;20202;-73
2022/03/10 01:39:08;;;;;;;6.30;4.55;;;-1.80;99.90;;;;;;4997555;28;20580;-73
2022/03/10 01:41:36;;;;;;;6.38;5.35;;;-1.90;99.90;;;;;;4997692;28;20320;-73
2022/03/10 01:44:06;;;;;;;7.90;5.07;;;-1.90;99.90;;;;;;4997362;28;20209;-75
2022/03/10 01:46:34;;;;;;;5.53;4.60;;;-1.90;99.90;;;;;;4997648;28;20205;-74
2022/03/10 01:49:02;;;;;;;6.40;4.47;;;-1.90;99.90;;;;;;4996903;28;20570;-75
2022/03/10 01:51:30;;;;;;;6.40;4.70;;;-1.90;99.90;;;;;;4996976;28;20678;-75
2022/03/10 01:53:57;;;;;;;6.97;4.57;;;-2.00;99.90;;;;;;4997286;28;20253;-75
2022/03/10 01:56:24;;;;;;;8.63;5.15;;;-2.00;99.90;;;;;;4996901;28;20710;-75
2022/03/10 01:58:53;;;;;;;6.65;5.20;;;-2.00;99.90;;;;;;4996758;28;20382;-74
2022/03/10 02:01:21;;;;;;;7.43;5.47;;;-2.00;99.90;;;;;;4996959;28;20294;-75
2022/03/10 02:03:48;;;;;;;7.15;4.63;;;-2.00;99.90;;;;;;4996906;28;20206;-74
2022/03/10 02:06:15;;;;;;;6.28;4.88;;;-2.00;99.90;;;;;;4996868;28;20202;-74
2022/03/10 02:11:28;;;;;;;5.35;4.57;;;-2.10;99.90;;;;;;4996705;28;20186;-74
2022/03/10 02:13:55;;;;;;;6.13;5.00;;;-2.10;99.90;;;;;;4996446;28;20206;-74
2022/03/10 02:19:08;;;;;;;6.63;4.38;;;-2.20;99.90;;;;;;4996614;28;20237;-74
2022/03/10 02:21:35;;;;;;;5.75;4.28;;;-2.20;99.90;;;;;;4996646;28;20227;-74
2022/03/10 02:24:04;;;;;;;5.50;4.22;;;-2.20;99.90;;;;;;4996339;28;20765;-73
2022/03/10 02:26:31;;;;;;;4.35;3.95;;;-2.20;99.90;;;;;;4997454;28;20202;-74
2022/03/10 02:28:58;;;;;;;5.53;4.18;;;-2.30;99.90;;;;;;4997199;28;20250;-74
2022/03/10 02:31:25;;;;;;;6.28;4.53;;;-2.30;99.90;;;;;;4996457;28;20287;-74
2022/03/10 02:33:54;;;;;;;5.40;3.92;;;-2.30;99.90;;;;;;4995762;28;20573;-74
2022/03/10 02:36:21;;;;;;;6.10;4.80;;;-2.30;99.90;;;;;;4995943;28;20207;-74
2022/03/10 02:38:48;;;;;;;4.97;4.38;;;-2.40;99.90;;;;;;4996182;28;20229;-74
2022/03/10 02:41:16;;;;;;;5.15;4.20;;;-2.40;99.90;;;;;;4996154;28;20293;-74
2022/03/10 02:43:43;;;;;;;5.55;4.63;;;-2.40;99.90;;;;;;4996255;28;20199;-74
2022/03/10 02:46:10;;;;;;;5.40;4.38;;;-2.40;99.90;;;;;;4996192;28;20231;-74
2022/03/10 02:48:37;;;;;;;4.88;4.15;;;-2.40;99.90;;;;;;4995795;28;20744;-74
2022/03/10 02:51:04;;;;;;;4.75;4.25;;;-2.40;99.90;;;;;;4995779;28;20199;-74
2022/03/10 02:53:31;;;;;;;5.90;4.32;;;-2.40;99.90;;;;;;4996082;28;20202;-74
2022/03/10 02:55:58;;;;;;;4.97;3.95;;;-2.50;99.90;;;;;;4996036;28;20206;-74
2022/03/10 02:58:26;;;;;;;6.63;4.13;;;-2.50;99.90;;;;;;4996031;28;20227;-74
2022/03/10 03:00:53;;;;;;;4.05;3.65;;;-2.50;99.90;;;;;;4996445;28;20207;-74
2022/03/10 03:03:20;;;;;;;4.22;3.83;;;-2.50;99.90;;;;;;4996904;28;20229;-74
2022/03/10 03:05:46;;;;;;;4.50;4.10;;;-2.50;99.90;;;;;;4997250;28;20230;-74
2022/03/10 03:08:13;;;;;;;4.50;4.05;;;-2.50;99.90;;;;;;5019918;23;20222;-68
2022/03/10 03:10:40;;;;;;;5.05;3.90;;;-2.50;99.90;;;;;;4995289;28;20298;-68
2022/03/10 03:13:07;;;;;;;4.47;3.97;;;-2.50;99.90;;;;;;4995638;28;20237;-68
2022/03/10 03:15:36;;;;;;;4.82;4.00;;;-2.50;99.90;;;;;;4995485;28;20199;-68
2022/03/10 03:18:02;;;;;;;4.10;3.70;;;-2.60;99.90;;;;;;4995389;28;20255;-68
2022/03/10 03:20:29;;;;;;;5.80;4.45;;;-2.60;99.90;;;;;;4995112;28;20202;-68
2022/03/10 03:22:56;;;;;;;4.82;4.10;;;-2.60;99.90;;;;;;4995303;28;20309;-68
2022/03/10 03:25:23;;;;;;;4.20;3.70;;;-2.60;99.90;;;;;;4995247;28;20203;-68
2022/03/10 03:27:50;;;;;;;4.53;3.70;;;-2.70;99.90;;;;;;4995123;28;20225;-68
2022/03/10 03:30:17;;;;;;;4.38;3.42;;;-2.70;99.90;;;;;;4995152;28;20293;-68
2022/03/10 03:32:46;;;;;;;6.47;4.53;;;-2.70;99.90;;;;;;4995221;28;20229;-68
2022/03/10 03:35:13;;;;;;;5.32;3.97;;;-2.70;99.90;;;;;;4994790;28;20638;-68
2022/03/10 03:37:40;;;;;;;4.70;4.22;;;-2.70;99.90;;;;;;4995056;28;20223;-68
2022/03/10 03:40:09;;;;;;;4.65;3.95;;;-2.70;99.90;;;;;;4994948;28;20203;-68
2022/03/10 03:42:36;;;;;;;4.75;4.18;;;-2.80;99.90;;;;;;4994599;28;20557;-68
2022/03/10 03:45:05;;;;;;;4.18;3.78;;;-2.80;99.90;;;;;;4994205;28;20605;-67
2022/03/10 03:47:32;;;;;;;5.25;3.67;;;-2.80;99.90;;;;;;4994750;28;20314;-66
2022/03/10 03:50:00;;;;;;;3.72;3.42;;;-2.90;99.90;;;;;;4994857;28;20214;-66
2022/03/10 03:52:27;;;;;;;4.35;4.05;;;-2.90;99.90;;;;;;4995194;28;20639;-67
2022/03/10 03:54:54;;;;;;;4.00;3.53;;;-2.90;99.90;;;;;;4994888;28;20213;-67
2022/03/10 03:57:21;;;;;;;4.50;4.10;;;-2.90;99.90;;;;;;4994650;28;20229;-67
2022/03/10 03:59:47;;;;;;;4.50;3.53;;;-2.90;99.90;;;;;;4994856;28;20309;-67
2022/03/10 04:02:14;;;;;;;4.07;3.65;;;-2.90;99.90;;;;;;4994257;28;20589;-67
2022/03/10 04:04:41;;;;;;;5.20;3.63;;;-2.90;99.90;;;;;;4994415;28;20228;-67
2022/03/10 04:07:09;;;;;;;5.00;3.70;;;-2.90;99.90;;;;;;4994470;28;20205;-67
2022/03/10 04:09:36;;;;;;;4.68;3.78;;;-2.90;99.90;;;;;;4994541;28;20191;-67
2022/03/10 04:12:04;;;;;;;4.40;3.83;;;-2.90;99.90;;;;;;4994384;28;20209;-67
2022/03/10 04:14:30;;;;;;;5.30;3.80;;;-2.90;99.90;;;;;;4994201;28;20213;-67
2022/03/10 04:16:57;;;;;;;4.55;4.05;;;-3.00;99.90;;;;;;4994171;28;20666;-67
2022/03/10 04:19:24;;;;;;;7.28;4.32;;;-3.00;99.90;;;;;;4994218;28;20230;-67
2022/03/10 04:21:51;;;;;;;4.20;3.70;;;-3.00;99.90;;;;;;4993871;28;20293;-67
2022/03/10 04:24:19;;;;;;;4.45;3.88;;;-3.00;99.90;;;;;;4993943;28;20704;-67
2022/03/10 04:26:46;;;;;;;3.80;3.47;;;-3.10;99.90;;;;;;4994338;28;20302;-67
2022/03/10 04:29:14;;;;;;;5.13;4.10;;;-3.10;99.90;;;;;;4994105;28;20273;-67
2022/03/10 04:31:41;;;;;;;4.50;3.80;;;-3.10;99.90;;;;;;4993721;28;20202;-67
2022/03/10 04:34:08;;;;;;;5.43;4.18;;;-3.10;99.90;;;;;;4994082;28;20198;-67
2022/03/10 04:36:35;;;;;;;4.28;3.88;;;-3.10;99.90;;;;;;4994026;28;20209;-67
2022/03/10 04:39:02;;;;;;;4.85;3.90;;;-3.10;99.90;;;;;;4993950;28;20223;-67
2022/03/10 04:41:31;;;;;;;5.03;4.22;;;-3.10;99.90;;;;;;4993608;28;20203;-67
2022/03/10 04:43:58;;;;;;;4.60;4.03;;;-3.10;99.90;;;;;;4993881;28;20261;-66
2022/03/10 04:46:25;;;;;;;4.47;3.53;;;-3.10;99.90;;;;;;4993838;28;20211;-66
2022/03/10 04:48:51;;;;;;;6.00;4.57;;;-3.10;99.90;;;;;;4993961;28;20223;-66
2022/03/10 04:51:18;;;;;;;4.75;3.78;;;-3.10;99.90;;;;;;4993816;28;20289;-66
2022/03/10 04:53:45;;;;;;;5.32;4.28;;;-3.20;99.90;;;;;;4993814;28;20598;-66
2022/03/10 04:56:12;;;;;;;5.63;3.90;;;-3.20;99.90;;;;;;4993685;28;20209;-66
2022/03/10 04:58:40;;;;;;;5.22;4.32;;;-3.20;99.90;;;;;;4993820;28;20312;-66
2022/03/10 05:01:07;;;;;;;5.43;4.20;;;-3.20;99.90;;;;;;4993847;28;20236;-65
2022/03/10 05:03:34;;;;;;;6.32;4.63;;;-3.20;99.90;;;;;;4993781;28;20309;-65
2022/03/10 05:06:01;;;;;;;5.75;4.13;;;-3.20;99.90;;;;;;4993781;28;20234;-65
2022/03/10 05:08:28;;;;;;;6.63;4.40;;;-3.20;99.90;;;;;;4993638;28;20230;-65
2022/03/10 05:10:55;;;;;;;5.03;4.22;;;-3.20;99.90;;;;;;4993437;28;20293;-65
2022/03/10 05:13:22;;;;;;;6.20;4.50;;;-3.30;99.90;;;;;;4993522;28;20290;-65
2022/03/10 05:15:50;;;;;;;5.35;4.13;;;-3.30;99.90;;;;;;4993454;28;20301;-66
2022/03/10 05:18:17;;;;;;;4.85;4.00;;;-3.30;99.90;;;;;;4993320;28;20313;-66
2022/03/10 05:20:46;;;;;;;7.20;5.20;;;-3.20;99.90;;;;;;4993103;28;20213;-66
2022/03/10 05:23:13;;;;;;;6.15;4.57;;;-3.30;99.90;;;;;;4993814;28;20770;-66
2022/03/10 05:25:42;;;;;;;7.95;5.50;;;-3.30;99.90;;;;;;4993770;28;20237;-66
2022/03/10 05:28:13;;;;;;;7.80;5.35;;;-3.30;99.90;;;;;;4993264;28;20310;-66
2022/03/10 05:30:40;;;;;;;10.20;6.82;;;-3.30;99.90;;;;;;4993428;28;20605;-66
2022/03/10 05:33:08;;;;;;;10.77;6.55;;;-3.30;99.90;;;;;;4993656;28;20234;-66
2022/03/10 05:35:35;;;;;;;9.55;5.72;;;-3.40;99.90;;;;;;4993909;28;20209;-67
2022/03/10 05:38:03;;;;;;;11.30;6.75;;;-3.30;99.90;;;;;;4993548;28;20257;-67
2022/03/10 05:40:30;;;;;;;15.13;7.90;;;-3.40;99.90;;;;;;4993725;28;20207;-67
2022/03/10 05:42:58;;;;;;;15.93;8.02;;;-3.40;99.90;;;;;;4993487;28;20410;-67
2022/03/10 05:45:26;;;;;;;15.18;7.80;;;-3.40;99.90;;;;;;4993243;28;20290;-68
2022/03/10 05:47:54;;;;;;;11.02;7.85;;;-3.40;99.90;;;;;;4993289;28;20225;-67
2022/03/10 05:50:25;;;;;;;13.15;7.15;;;-3.40;99.90;;;;;;4993474;28;20209;-67
2022/03/10 05:52:52;;;;;;;10.68;6.75;;;-3.40;99.90;;;;;;4993204;28;20183;-68
2022/03/10 05:55:20;;;;;;;10.60;7.32;;;-3.40;99.90;;;;;;4993423;28;20290;-67
2022/03/10 05:57:47;;;;;;;8.00;5.97;;;-3.40;99.90;;;;;;4993231;28;20313;-67
2022/03/10 06:00:15;;;;;;;11.38;6.28;;;-3.40;99.90;;;;;;4993279;28;20233;-67
2022/03/10 06:02:42;;;;;;;7.60;5.90;;;-3.30;99.90;;;;;;4992843;28;20586;-67
2022/03/10 06:05:09;;;;;;;8.90;5.65;;;-3.30;99.90;;;;;;4993324;28;20293;-68
2022/03/10 06:07:38;;;;;;;10.95;6.78;;;-3.20;99.90;;;;;;4993800;28;20333;-68
2022/03/10 06:10:06;;;;;;;9.75;6.10;;;-3.20;99.90;;;;;;4996307;28;20672;-68
2022/03/10 06:12:33;;;;;;;9.77;6.35;;;-3.20;99.90;;;;;;4996217;28;20757;-66
2022/03/10 06:15:01;;;;;;;11.63;6.57;;;-3.10;99.90;;;;;;4996490;28;20226;-69
2022/03/10 06:17:29;;;;;;;12.88;6.78;;;-3.00;99.90;;;;;;4996629;28;20223;-68
2022/03/10 06:19:57;;;;;;;8.60;6.25;;;-2.70;99.90;;;;;;4996977;28;20214;-66
2022/03/10 06:22:27;;;;;;;15.98;8.05;;;-2.40;99.90;;;;;;4996162;28;20253;-66
2022/03/10 06:24:55;;;;;;;12.60;7.95;;;-2.00;99.90;;;;;;4996258;28;20741;-67
2022/03/10 06:27:23;;;;;;;13.10;8.10;;;-1.20;99.90;;;;;;4996225;28;20310;-67
2022/03/10 06:29:51;;;;;;;9.70;6.82;;;-0.10;99.90;;;;;;4996401;28;20241;-67
2022/03/10 06:32:18;;;;;;;11.18;7.10;;;1.30;99.90;;;;;;4996404;28;20257;-67
2022/03/10 06:34:46;;;;;;;12.63;7.65;;;2.60;99.90;;;;;;4996113;28;20233;-67
2022/03/10 06:37:13;;;;;;;8.68;7.18;;;3.90;99.90;;;;;;4996370;28;20203;-67
2022/03/10 06:39:40;;;;;;;11.40;7.25;;;4.80;95.10;;;;;;4996442;28;20183;-66
2022/03/10 06:42:10;;;;;;;8.60;6.32;;;5.30;73.10;;;;;;4996734;28;20294;-67
2022/03/10 06:44:37;;;;;;;8.20;6.53;;;5.50;56.80;;;;;;4996610;28;20231;-67
2022/03/10 06:47:05;;;;;;;10.23;6.75;;;5.70;65.70;;;;;;4996469;28;20207;-68
2022/03/10 06:49:32;;;;;;;9.60;6.72;;;6.50;68.70;;;;;;4995756;28;20693;-67
2022/03/10 06:51:59;;;;;;;10.18;6.72;;;7.60;60.20;;;;;;4996172;28;20206;-67
2022/03/10 06:54:27;;;;;;;9.85;7.00;;;8.80;52.80;;;;;;4995741;28;20637;-67
2022/03/10 06:56:54;;;;;;;10.32;7.00;;;10.00;44.80;;;;;;4995673;28;20573;-67
2022/03/10 06:59:22;;;;;;;12.32;7.13;;;10.90;38.90;;;;;;4996275;28;20225;-67
2022/03/10 07:01:50;;;;;;;14.30;8.32;;;11.60;34.80;;;;;;4995680;28;20298;-67
2022/03/10 07:04:17;;;;;;;13.00;8.65;;;12.30;32.60;;;;;;4995805;28;20225;-67
2022/03/10 07:06:44;;;;;;;8.95;7.28;;;13.10;30.50;;;;;;4995620;28;20387;-67
2022/03/10 07:09:11;;;;;;;15.73;9.70;;;13.90;28.90;;;;;;4995302;28;20230;-67
2022/03/10 07:11:38;;;;;;;15.50;8.77;;;14.50;27.10;;;;;;4995746;28;20294;-67
2022/03/10 07:14:05;;;;;;;13.68;8.20;;;15.00;25.70;;;;;;4995476;28;20289;-67
2022/03/10 07:16:33;;;;;;;10.95;7.68;;;15.40;23.40;;;;;;4995783;28;20202;-67
2022/03/10 07:19:00;;;;;;;12.52;8.35;;;15.50;22.00;;;;;;4994419;28;20245;-67
2022/03/10 07:21:27;;;;;;;9.52;7.05;;;15.50;20.90;;;;;;4995259;28;20302;-67
2022/03/10 07:23:54;;;;;;;10.80;7.82;;;15.40;20.80;;;;;;4995454;28;20223;-67
2022/03/10 07:26:21;;;;;;;11.45;7.32;;;15.10;20.00;;;;;;4995487;28;20290;-67
2022/03/10 07:28:48;;;;;;;11.18;8.00;;;14.70;20.40;;;;;;4995473;28;20222;-67
2022/03/10 07:31:15;;;;;;;9.75;6.53;;;14.30;20.10;;;;;;4995427;28;20206;-67
2022/03/10 07:33:44;;;;;;;9.48;7.78;;;14.00;20.20;;;;;;4995412;28;20203;-67
2022/03/10 07:36:11;;;;;;;15.48;8.63;;;13.60;20.40;;;;;;4995317;28;20290;-67
2022/03/10 07:38:38;;;;;;;15.63;10.57;;;13.00;20.80;;;;;;4995284;28;20226;-67
2022/03/10 07:41:05;;;;;;;13.88;10.05;;;12.50;21.00;;;;;;4994949;28;20720;-67
2022/03/10 07:43:32;;;;;;;14.18;9.95;;;11.80;22.20;;;;;;4995147;28;20310;-67
2022/03/10 07:45:58;;;;;;;14.13;9.77;;;11.20;22.20;;;;;;4995119;28;20290;-67
2022/03/10 07:48:25;;;;;;;13.95;9.82;;;10.80;22.50;;;;;;4995100;28;20313;-67
2022/03/10 07:50:55;;;;;;;14.07;10.13;;;10.40;23.10;;;;;;4995283;28;20237;-67
2022/03/10 07:53:22;;;;;;;15.98;10.27;;;10.30;23.40;;;;;;4995629;28;20257;-67
2022/03/10 07:55:50;;;;;;;13.38;10.32;;;10.20;23.50;;;;;;4994555;28;20297;-67
2022/03/10 07:58:17;;;;;;;14.82;9.85;;;10.10;23.70;;;;;;4995055;28;20281;-67
2022/03/10 08:00:43;;;;;;;17.08;10.43;;;10.10;23.60;;;;;;4994865;28;20241;-67
2022/03/10 08:03:10;;;;;;;16.40;10.85;;;10.00;23.40;;;;;;4994936;28;20294;-67
2022/03/10 08:05:37;;;;;;;16.13;10.10;;;10.00;23.70;;;;;;4994821;28;20237;-67
2022/03/10 08:08:06;;;;;;;15.88;9.77;;;9.90;24.50;;;;;;4994386;28;20234;-67
2022/03/10 08:10:33;;;;;;;15.20;9.52;;;9.90;24.70;;;;;;4994737;28;20208;-67
2022/03/10 08:13:00;;;;;;;13.93;9.23;;;9.90;24.50;;;;;;4994988;28;20211;-67
2022/03/10 08:15:28;;;;;;;11.27;8.82;;;9.90;24.90;;;;;;4994552;28;20742;-67
2022/03/10 08:17:55;;;;;;;11.77;7.80;;;10.00;24.00;;;;;;4994695;28;20226;-67
2022/03/10 08:20:23;;;;;;;10.77;8.00;;;10.10;23.90;;;;;;4994767;28;20214;-67
2022/03/10 08:22:50;;;;;;;10.68;7.78;;;10.10;23.80;;;;;;4994561;28;20202;-67
2022/03/10 08:25:18;;;;;;;10.18;7.28;;;10.00;23.80;;;;;;4994174;28;20698;-67
2022/03/10 08:27:47;;;;;;;12.48;8.77;;;10.00;24.20;;;;;;4994729;28;20226;-67
2022/03/10 08:30:15;;;;;;;11.32;7.97;;;9.80;24.70;;;;;;4994577;28;20203;-67
2022/03/10 08:32:43;;;;;;;10.65;7.78;;;9.70;25.10;;;;;;4994115;28;20205;-67
2022/03/10 08:35:10;;;;;;;13.18;8.05;;;9.40;25.30;;;;;;4994494;28;20286;-67
2022/03/10 08:37:38;;;;;;;10.30;7.35;;;9.20;25.70;;;;;;4994264;28;20226;-67
2022/03/10 08:40:06;;;;;;;10.40;7.38;;;8.90;25.90;;;;;;4994307;28;20202;-67
2022/03/10 08:42:35;;;;;;;11.65;7.70;;;8.80;26.50;;;;;;4994273;28;20193;-67
2022/03/10 08:45:02;;;;;;;10.63;7.43;;;8.60;27.10;;;;;;4994227;28;20229;-67
2022/03/10 08:47:29;;;;;;;9.00;6.93;;;8.50;27.40;;;;;;4994110;28;20222;-67
2022/03/10 08:49:55;;;;;;;9.55;7.18;;;8.40;26.90;;;;;;4994258;28;20229;-67
2022/03/10 08:52:23;;;;;;;12.15;7.15;;;8.30;27.70;;;;;;4994050;28;20209;-67
2022/03/10 08:54:50;;;;;;;9.75;6.90;;;8.30;27.80;;;;;;4994176;28;20285;-67
2022/03/10 08:57:18;;;;;;;10.35;6.95;;;8.50;27.70;;;;;;4994039;28;20212;-67
2022/03/10 08:59:46;;;;;;;11.48;7.78;;;8.50;28.00;;;;;;4994007;28;20198;-67
2022/03/10 09:02:13;;;;;;;12.23;7.63;;;8.50;28.00;;;;;;4994057;28;20292;-67
2022/03/10 09:04:40;;;;;;;9.23;7.20;;;8.60;28.30;;;;;;4993988;28;20219;-67
2022/03/10 09:07:07;;;;;;;14.15;9.05;;;8.70;27.70;;;;;;4993683;28;20202;-66
2022/03/10 09:09:34;;;;;;;14.68;8.25;;;8.60;28.30;;;;;;4994561;28;20278;-68
2022/03/10 09:12:01;;;;;;;11.90;7.47;;;8.60;28.50;;;;;;4993915;28;20297;-68
2022/03/10 09:14:28;;;;;;;10.15;7.53;;;8.70;28.60;;;;;;4993932;28;20206;-69
2022/03/10 09:16:57;;;;;;;11.52;7.80;;;8.80;28.80;;;;;;4993985;28;20289;-68
2022/03/10 09:19:24;;;;;;;11.82;8.10;;;8.90;28.20;;;;;;4993915;28;20313;-68
2022/03/10 09:21:51;;;;;;;9.80;6.65;;;9.00;29.00;;;;;;4993955;28;20280;-68
2022/03/10 09:24:18;;;;;;;8.98;6.53;;;9.10;29.00;;;;;;4993767;28;20227;-68
2022/03/10 09:26:45;;;;;;;9.60;6.55;;;9.20;28.90;;;;;;4993832;28;20229;-69
2022/03/10 09:29:12;;;;;;;11.90;7.47;;;9.40;28.80;;;;;;4993494;28;20701;-69
2022/03/10 09:31:39;;;;;;;9.13;6.90;;;9.50;28.70;;;;;;4993487;28;20542;-69
2022/03/10 09:34:08;;;;;;;9.10;6.45;;;9.50;28.40;;;;;;4993532;28;20264;-69
2022/03/10 09:36:35;;;;;;;12.80;7.13;;;9.60;28.70;;;;;;4993781;28;20203;-69
2022/03/10 09:39:02;;;;;;;13.57;7.45;;;9.70;28.00;;;;;;4993411;28;20588;-69
2022/03/10 09:41:29;;;;;;;11.77;7.38;;;9.80;27.90;;;;;;4993696;28;20211;-68
2022/03/10 09:43:56;;;;;;;10.40;7.07;;;9.90;28.00;;;;;;4996384;28;20578;-68
2022/03/10 09:46:23;;;;;;;12.15;7.95;;;10.00;26.90;;;;;;4997410;28;20238;-68
2022/03/10 09:48:51;;;;;;;10.65;7.28;;;10.00;26.30;;;;;;4997272;28;20242;-69
2022/03/10 09:51:21;;;;;;;10.88;6.85;;;9.90;26.80;;;;;;4997034;28;20202;-69
2022/03/10 09:53:48;;;;;;;10.65;6.60;;;9.90;26.50;;;;;;4997424;28;20191;-69
2022/03/10 09:56:16;;;;;;;10.88;6.95;;;9.90;26.70;;;;;;4997182;28;20198;-68
2022/03/10 09:58:43;;;;;;;11.63;7.82;;;9.90;26.40;;;;;;4996843;28;20226;-70
2022/03/10 10:01:09;;;;;;;9.13;6.70;;;9.80;26.30;;;;;;4997292;28;20230;-69
2022/03/10 10:03:36;;;;;;;11.38;7.35;;;9.80;27.00;;;;;;4997180;28;20290;-69
2022/03/10 10:06:04;;;;;;;12.20;7.38;;;9.90;26.50;;;;;;4997050;28;20573;-69
2022/03/10 10:08:34;;;;;;;9.45;6.15;;;9.90;26.20;;;;;;4996544;28;20262;-69
2022/03/10 10:11:02;;;;;;;8.02;5.82;;;9.90;26.30;;;;;;4996952;28;20191;-70
2022/03/10 10:13:30;;;;;;;11.30;7.50;;;10.00;25.80;;;;;;4996895;28;20613;-70
2022/03/10 10:15:59;;;;;;;10.20;6.70;;;10.10;25.30;;;;;;4996552;28;20203;-70
2022/03/10 10:18:27;;;;;;;10.32;6.97;;;10.10;25.10;;;;;;4996439;28;20229;-69
2022/03/10 10:20:55;;;;;;;8.07;5.07;;;10.20;23.60;;;;;;4997145;28;20199;-70
2022/03/10 10:23:24;;;;;;;7.88;5.63;;;10.40;21.70;;;;;;4996876;28;20569;-69
2022/03/10 10:25:55;;;;;;;6.70;5.10;;;10.40;22.60;;;;;;4996852;28;20222;-69
2022/03/10 10:28:27;;;;;;;5.80;4.65;;;10.50;21.50;;;;;;4996650;28;20223;-69
2022/03/10 10:30:57;;;;;;;6.45;4.65;;;10.50;19.00;;;;;;4996308;28;20549;-69
2022/03/10 10:33:24;;;;;;;9.52;6.05;;;10.60;18.70;;;;;;4996291;28;20257;-69
2022/03/10 10:35:51;;;;;;;6.68;5.28;;;10.60;18.80;;;;;;4996200;28;20673;-69
2022/03/10 10:38:31;;;;;;;7.13;4.55;;;10.50;18.30;;;;;;4996422;28;20230;-69
2022/03/10 10:41:27;;;;;;;5.95;3.97;;;10.50;18.50;;;;;;4996365;28;20210;-69
2022/03/10 10:43:56;;;;;;;7.25;4.43;;;10.40;17.60;;;;;;4996351;28;20183;-69
2022/03/10 10:46:29;;;;;;;6.05;4.68;;;10.60;17.80;;;;;;4996071;28;20202;-70
2022/03/10 10:48:57;;;;;;;4.85;4.20;;;10.60;17.80;;;;;;4995949;28;20662;-70
2022/03/10 10:51:35;;;;;;;5.22;4.72;;;10.50;17.60;;;;;;4996404;28;20209;-70
2022/03/10 10:54:05;;;;;;;6.07;4.32;;;10.60;18.20;;;;;;4995781;28;20187;-70
2022/03/10 10:56:34;;;;;;;5.25;4.15;;;10.60;17.80;;;;;;4995938;28;20662;-70
2022/03/10 10:59:03;;;;;;;6.07;4.30;;;10.50;17.70;;;;;;4995930;28;20697;-71
2022/03/10 11:01:32;;;;;;;4.78;4.07;;;10.50;18.20;;;;;;4996033;28;20198;-71
2022/03/10 11:03:58;;;;;;;6.10;4.55;;;10.50;18.10;;;;;;4995490;28;20199;-68
2022/03/10 11:06:26;;;;;;;6.53;3.88;;;10.50;18.90;;;;;;4995572;28;20209;-68
2022/03/10 11:08:53;;;;;;;5.32;4.35;;;10.60;19.00;;;;;;4995229;28;20713;-68
2022/03/10 11:11:21;;;;;;;4.20;3.38;;;10.60;18.90;;;;;;4995842;28;20198;-68
2022/03/10 11:13:49;;;;;;;4.00;3.65;;;10.60;18.70;;;;;;4995854;28;20202;-68
2022/03/10 11:16:17;;;;;;;6.32;4.78;;;10.60;19.50;;;;;;4995673;28;20195;-68
2022/03/10 11:18:49;;;;;;;8.52;5.43;;;10.70;19.00;;;;;;4995701;28;20222;-68
2022/03/10 11:21:50;;;;;;;6.60;5.30;;;10.60;19.00;;;;;;4995479;28;20191;-68
2022/03/10 11:24:40;;;;;;;6.85;4.70;;;10.60;18.90;;;;;;4995600;28;20203;-68
2022/03/10 11:27:11;;;;;;;5.00;3.72;;;10.60;18.70;;;;;;4992835;28;20206;-68
2022/03/10 11:29:41;;;;;;;5.80;4.68;;;10.60;19.10;;;;;;4995609;28;20219;-68
2022/03/10 11:32:11;;;;;;;5.88;5.05;;;10.60;19.00;;;;;;4995504;28;20206;-68
2022/03/10 11:34:49;;;;;;;5.90;5.00;;;10.60;19.50;;;;;;4995133;28;20563;-70
2022/03/10 11:37:36;;;;;;;5.20;4.70;;;10.70;19.40;;;;;;4995116;28;20202;-71
2022/03/10 11:40:05;;;;;;;5.30;4.40;;;10.70;19.30;;;;;;4995418;28;20183;-71
2022/03/10 11:42:33;;;;;;;4.28;3.88;;;10.70;19.40;;;;;;4995441;28;20206;-69
2022/03/10 11:45:09;;;;;;;3.70;3.40;;;10.70;19.10;;;;;;4995335;28;20302;-69
2022/03/10 11:47:37;;;;;;;3.70;3.25;;;10.70;19.10;;;;;;4995492;28;20333;-70
2022/03/10 11:50:29;;;;;;;2.97;2.67;;;10.80;18.90;;;;;;4994988;28;20672;-69
2022/03/10 11:53:01;;;;;;;2.85;2.65;;;10.70;18.80;;;;;;4994759;28;20234;-69
2022/03/10 11:55:48;;;;;;;4.15;3.20;;;10.70;19.00;;;;;;4995074;28;20184;-69
2022/03/10 11:58:15;;;;;;;1.90;1.80;;;10.70;18.90;;;;;;4994741;28;20273;-69
2022/03/10 12:00:52;;;;;;;1.83;1.73;;;10.70;18.80;;;;;;4995003;28;20207;-70
2022/03/10 12:03:21;;;;;;;2.17;1.98;;;10.80;18.90;;;;;;4995005;28;20191;-70
2022/03/10 12:05:52;;;;;;;3.45;2.92;;;10.80;19.20;;;;;;4994090;28;20702;-70
2022/03/10 12:08:19;;;;;;;3.65;2.20;;;10.80;19.10;;;;;;4994515;28;20602;-70
2022/03/10 12:10:48;;;;;;;4.30;2.65;;;10.70;19.00;;;;;;4996007;28;20215;-70
2022/03/10 12:13:29;;;;;;;2.45;2.25;;;10.70;19.10;;;;;;4998334;28;20203;-70
2022/03/10 12:15:58;;;;;;;2.38;2.17;;;10.70;19.00;;;;;;4998134;28;20187;-69
2022/03/10 12:18:30;;;;;;;2.63;2.38;;;10.70;18.80;;;;;;4998588;28;20229;-70
2022/03/10 12:20:58;;;;;;;3.97;2.50;;;10.70;18.40;;;;;;4999204;28;20221;-70
2022/03/10 12:23:31;;;;;;;4.45;2.60;;;10.70;18.70;;;;;;4998558;28;20210;-70
2022/03/10 12:26:06;;;;;;;2.40;2.15;;;10.60;19.00;;;;;;4999440;28;20229;-69
2022/03/10 12:28:35;;;;;;;3.15;2.85;;;10.70;19.10;;;;;;4999092;28;20649;-69
2022/03/10 12:31:06;;;;;;;3.00;2.53;;;10.70;18.40;;;;;;4998623;28;20229;-70
2022/03/10 12:33:35;;;;;;;2.72;2.53;;;10.70;18.00;;;;;;4999209;28;20190;-69
2022/03/10 12:36:03;;;;;;;2.85;2.65;;;10.70;18.10;;;;;;4998837;28;20281;-70
2022/03/10 12:38:44;;;;;;;7.15;3.33;;;10.80;18.40;;;;;;4998024;28;20224;-70
2022/03/10 12:41:11;;;;;;;3.97;3.67;;;10.80;18.60;;;;;;4998639;28;20706;-70
2022/03/10 12:43:38;;;;;;;5.28;3.20;;;10.90;19.10;;;;;;4998059;28;20253;-69
2022/03/10 12:46:07;;;;;;;4.15;3.30;;;10.90;19.20;;;;;;4998281;28;20240;-70
2022/03/10 12:48:48;;;;;;;4.95;3.33;;;10.90;18.80;;;;;;4997840;28;20574;-69
2022/03/10 12:51:24;;;;;;;8.15;4.40;;;11.00;19.00;;;;;;4999004;28;20214;-69
2022/03/10 12:53:52;;;;;;;3.30;3.10;;;11.00;19.10;;;;;;4999048;28;20206;-70
2022/03/10 12:56:20;;;;;;;4.22;3.53;;;11.00;18.00;;;;;;4995533;28;20207;-70